sensor_id;sensor_type;location;lat;lon;timestamp;P1;durP1;ratioP1;P2;durP2;ratioP2
15913;SDS011;8055;51.930;8.840;2022-12-11T00:02:04;43.65;;;24.00;;
15913;SDS011;8055;51.930;8.840;2022-12-11T00:04:29;41.33;;;23.88;;
15913;SDS011;8055;51.930;8.840;2022-12-11T00:06:55;45.08;;;24.27;;
15913;SDS011;8055;51.930;8.840;2022-12-11T00:09:21;39.72;;;22.55;;
15913;SDS011;8055;51.930;8.840;2022-12-11T00:11:47;41.42;;;23.13;;
15913;SDS011;8055;51.930;8.840;2022-12-11T00:14:13;38.90;;;22.25;;
15913;SDS011;8055;51.930;8.840;2022-12-11T00:16:39;36.95;;;21.65;;
15913;SDS011;8055;51.930;8.840;2022-12-11T00:19:05;39.33;;;22.65;;
15913;SDS011;8055;51.930;8.840;2022-12-11T00:21:30;44.45;;;24.23;;
15913;SDS011;8055;51.930;8.840;2022-12-11T00:23:56;43.95;;;24.83;;
15913;SDS011;8055;51.930;8.840;2022-12-11T00:26:21;44.85;;;24.02;;
15913;SDS011;8055;51.930;8.840;2022-12-11T00:28:51;44.38;;;23.95;;
15913;SDS011;8055;51.930;8.840;2022-12-11T00:31:18;45.25;;;24.25;;
15913;SDS011;8055;51.930;8.840;2022-12-11T00:33:44;45.20;;;25.00;;
15913;SDS011;8055;51.930;8.840;2022-12-11T00:36:13;42.83;;;24.00;;
15913;SDS011;8055;51.930;8.840;2022-12-11T00:38:41;44.95;;;25.73;;
15913;SDS011;8055;51.930;8.840;2022-12-11T00:41:07;45.42;;;24.08;;
15913;SDS011;8055;51.930;8.840;2022-12-11T00:43:33;43.28;;;23.42;;
15913;SDS011;8055;51.930;8.840;2022-12-11T00:45:59;44.92;;;24.08;;
15913;SDS011;8055;51.930;8.840;2022-12-11T00:48:24;48.22;;;25.05;;
15913;SDS011;8055;51.930;8.840;2022-12-11T00:50:49;48.92;;;25.92;;
15913;SDS011;8055;51.930;8.840;2022-12-11T00:53:15;44.90;;;24.00;;
15913;SDS011;8055;51.930;8.840;2022-12-11T00:55:41;44.22;;;24.73;;
15913;SDS011;8055;51.930;8.840;2022-12-11T00:58:06;44.92;;;24.95;;
15913;SDS011;8055;51.930;8.840;2022-12-11T01:00:32;45.65;;;24.65;;
15913;SDS011;8055;51.930;8.840;2022-12-11T01:02:58;43.97;;;24.98;;
15913;SDS011;8055;51.930;8.840;2022-12-11T01:05:23;71.38;;;25.17;;
15913;SDS011;8055;51.930;8.840;2022-12-11T01:07:48;44.47;;;23.38;;
15913;SDS011;8055;51.930;8.840;2022-12-11T01:10:14;46.20;;;24.35;;
15913;SDS011;8055;51.930;8.840;2022-12-11T01:12:56;47.47;;;25.52;;
15913;SDS011;8055;51.930;8.840;2022-12-11T01:15:31;46.90;;;24.80;;
15913;SDS011;8055;51.930;8.840;2022-12-11T01:18:04;45.88;;;24.98;;
15913;SDS011;8055;51.930;8.840;2022-12-11T01:20:30;45.40;;;25.05;;
15913;SDS011;8055;51.930;8.840;2022-12-11T01:22:57;43.60;;;23.50;;
15913;SDS011;8055;51.930;8.840;2022-12-11T01:25:24;45.70;;;25.95;;
15913;SDS011;8055;51.930;8.840;2022-12-11T01:27:50;45.55;;;24.25;;
15913;SDS011;8055;51.930;8.840;2022-12-11T01:30:18;45.13;;;25.08;;
15913;SDS011;8055;51.930;8.840;2022-12-11T01:32:45;51.58;;;27.02;;
15913;SDS011;8055;51.930;8.840;2022-12-11T01:35:10;46.05;;;25.20;;
15913;SDS011;8055;51.930;8.840;2022-12-11T01:37:36;48.67;;;25.77;;
15913;SDS011;8055;51.930;8.840;2022-12-11T01:40:03;47.78;;;25.75;;
15913;SDS011;8055;51.930;8.840;2022-12-11T01:42:30;44.85;;;23.30;;
15913;SDS011;8055;51.930;8.840;2022-12-11T01:47:46;50.38;;;23.80;;
15913;SDS011;8055;51.930;8.840;2022-12-11T01:50:12;47.25;;;24.58;;
15913;SDS011;8055;51.930;8.840;2022-12-11T01:52:38;47.60;;;23.55;;
15913;SDS011;8055;51.930;8.840;2022-12-11T01:55:07;49.92;;;23.67;;
15913;SDS011;8055;51.930;8.840;2022-12-11T01:57:33;49.65;;;24.23;;
15913;SDS011;8055;51.930;8.840;2022-12-11T02:00:00;46.90;;;25.13;;
15913;SDS011;8055;51.930;8.840;2022-12-11T02:02:26;48.85;;;22.77;;
15913;SDS011;8055;51.930;8.840;2022-12-11T02:04:54;48.53;;;24.63;;
15913;SDS011;8055;51.930;8.840;2022-12-11T02:07:19;44.58;;;22.67;;
15913;SDS011;8055;51.930;8.840;2022-12-11T02:09:45;48.42;;;23.42;;
15913;SDS011;8055;51.930;8.840;2022-12-11T02:12:18;37.88;;;20.58;;
15913;SDS011;8055;51.930;8.840;2022-12-11T02:18:16;44.30;;;22.15;;
15913;SDS011;8055;51.930;8.840;2022-12-11T02:20:46;46.22;;;23.35;;
15913;SDS011;8055;51.930;8.840;2022-12-11T02:28:49;52.15;;;25.48;;
15913;SDS011;8055;51.930;8.840;2022-12-11T02:34:12;53.40;;;24.88;;
15913;SDS011;8055;51.930;8.840;2022-12-11T02:36:43;58.35;;;25.63;;
15913;SDS011;8055;51.930;8.840;2022-12-11T02:39:13;50.10;;;23.98;;
15913;SDS011;8055;51.930;8.840;2022-12-11T02:41:41;51.00;;;25.00;;
15913;SDS011;8055;51.930;8.840;2022-12-11T02:44:11;57.53;;;25.10;;
15913;SDS011;8055;51.930;8.840;2022-12-11T02:46:39;55.33;;;25.15;;
15913;SDS011;8055;51.930;8.840;2022-12-11T02:49:07;60.25;;;26.70;;
15913;SDS011;8055;51.930;8.840;2022-12-11T02:51:35;53.30;;;26.13;;
15913;SDS011;8055;51.930;8.840;2022-12-11T02:54:04;56.17;;;25.58;;
15913;SDS011;8055;51.930;8.840;2022-12-11T02:56:41;62.95;;;28.63;;
15913;SDS011;8055;51.930;8.840;2022-12-11T02:59:14;58.35;;;26.83;;
15913;SDS011;8055;51.930;8.840;2022-12-11T03:01:44;58.42;;;26.88;;
15913;SDS011;8055;51.930;8.840;2022-12-11T03:04:10;46.58;;;23.38;;
15913;SDS011;8055;51.930;8.840;2022-12-11T03:06:37;58.28;;;26.00;;
15913;SDS011;8055;51.930;8.840;2022-12-11T03:09:06;47.30;;;22.88;;
15913;SDS011;8055;51.930;8.840;2022-12-11T03:11:32;58.38;;;24.85;;
15913;SDS011;8055;51.930;8.840;2022-12-11T03:13:57;52.88;;;25.17;;
15913;SDS011;8055;51.930;8.840;2022-12-11T03:16:34;59.03;;;27.92;;
15913;SDS011;8055;51.930;8.840;2022-12-11T03:19:17;57.45;;;25.23;;
15913;SDS011;8055;51.930;8.840;2022-12-11T03:21:59;55.65;;;25.48;;
15913;SDS011;8055;51.930;8.840;2022-12-11T03:24:37;53.00;;;24.65;;
15913;SDS011;8055;51.930;8.840;2022-12-11T03:30:02;55.20;;;25.35;;
15913;SDS011;8055;51.930;8.840;2022-12-11T03:32:53;57.85;;;25.30;;
15913;SDS011;8055;51.930;8.840;2022-12-11T03:35:25;61.42;;;26.33;;
15913;SDS011;8055;51.930;8.840;2022-12-11T03:37:57;64.28;;;27.27;;
15913;SDS011;8055;51.930;8.840;2022-12-11T03:40:27;61.90;;;26.73;;
15913;SDS011;8055;51.930;8.840;2022-12-11T03:42:57;66.10;;;29.35;;
15913;SDS011;8055;51.930;8.840;2022-12-11T03:45:23;60.50;;;28.00;;
15913;SDS011;8055;51.930;8.840;2022-12-11T03:47:51;59.92;;;27.95;;
15913;SDS011;8055;51.930;8.840;2022-12-11T03:50:18;53.33;;;25.38;;
15913;SDS011;8055;51.930;8.840;2022-12-11T03:52:46;61.47;;;27.05;;
15913;SDS011;8055;51.930;8.840;2022-12-11T03:55:13;68.18;;;28.05;;
15913;SDS011;8055;51.930;8.840;2022-12-11T03:57:41;74.90;;;31.23;;
15913;SDS011;8055;51.930;8.840;2022-12-11T04:00:08;82.65;;;31.35;;
15913;SDS011;8055;51.930;8.840;2022-12-11T04:02:36;73.88;;;29.67;;
15913;SDS011;8055;51.930;8.840;2022-12-11T04:05:01;93.55;;;34.80;;
15913;SDS011;8055;51.930;8.840;2022-12-11T04:07:27;94.60;;;33.80;;
15913;SDS011;8055;51.930;8.840;2022-12-11T04:09:52;109.82;;;36.42;;
15913;SDS011;8055;51.930;8.840;2022-12-11T04:12:18;99.35;;;34.95;;
15913;SDS011;8055;51.930;8.840;2022-12-11T04:14:44;106.70;;;35.13;;
15913;SDS011;8055;51.930;8.840;2022-12-11T04:17:28;99.70;;;35.15;;
15913;SDS011;8055;51.930;8.840;2022-12-11T04:20:13;109.03;;;38.92;;
15913;SDS011;8055;51.930;8.840;2022-12-11T04:22:57;113.88;;;37.33;;
15913;SDS011;8055;51.930;8.840;2022-12-11T04:25:41;89.45;;;32.30;;
15913;SDS011;8055;51.930;8.840;2022-12-11T04:28:06;101.85;;;36.28;;
15913;SDS011;8055;51.930;8.840;2022-12-11T04:30:31;93.38;;;33.58;;
15913;SDS011;8055;51.930;8.840;2022-12-11T04:32:57;98.05;;;34.67;;
15913;SDS011;8055;51.930;8.840;2022-12-11T04:35:22;94.70;;;34.22;;
15913;SDS011;8055;51.930;8.840;2022-12-11T04:37:48;95.95;;;33.60;;
15913;SDS011;8055;51.930;8.840;2022-12-11T04:40:14;105.22;;;34.45;;
15913;SDS011;8055;51.930;8.840;2022-12-11T04:42:42;103.03;;;34.35;;
15913;SDS011;8055;51.930;8.840;2022-12-11T04:45:08;103.53;;;34.45;;
15913;SDS011;8055;51.930;8.840;2022-12-11T04:47:35;117.43;;;39.95;;
15913;SDS011;8055;51.930;8.840;2022-12-11T04:50:01;115.53;;;35.45;;
15913;SDS011;8055;51.930;8.840;2022-12-11T04:52:27;107.97;;;34.35;;
15913;SDS011;8055;51.930;8.840;2022-12-11T04:54:53;96.18;;;32.20;;
15913;SDS011;8055;51.930;8.840;2022-12-11T04:57:18;98.25;;;34.13;;
15913;SDS011;8055;51.930;8.840;2022-12-11T04:59:45;99.22;;;34.22;;
15913;SDS011;8055;51.930;8.840;2022-12-11T05:02:11;98.55;;;34.50;;
15913;SDS011;8055;51.930;8.840;2022-12-11T05:04:36;108.82;;;36.25;;
15913;SDS011;8055;51.930;8.840;2022-12-11T05:07:01;104.93;;;35.15;;
15913;SDS011;8055;51.930;8.840;2022-12-11T05:09:27;103.93;;;34.58;;
15913;SDS011;8055;51.930;8.840;2022-12-11T05:11:52;119.80;;;36.30;;
15913;SDS011;8055;51.930;8.840;2022-12-11T05:14:18;113.70;;;38.70;;
15913;SDS011;8055;51.930;8.840;2022-12-11T05:16:44;115.43;;;36.47;;
15913;SDS011;8055;51.930;8.840;2022-12-11T05:19:09;116.07;;;38.15;;
15913;SDS011;8055;51.930;8.840;2022-12-11T05:21:35;104.25;;;36.53;;
15913;SDS011;8055;51.930;8.840;2022-12-11T05:24:00;111.00;;;36.92;;
15913;SDS011;8055;51.930;8.840;2022-12-11T05:26:26;114.55;;;37.78;;
15913;SDS011;8055;51.930;8.840;2022-12-11T05:28:52;102.78;;;35.08;;
15913;SDS011;8055;51.930;8.840;2022-12-11T05:31:25;112.57;;;37.50;;
15913;SDS011;8055;51.930;8.840;2022-12-11T05:33:52;104.40;;;35.55;;
15913;SDS011;8055;51.930;8.840;2022-12-11T05:36:22;101.30;;;34.67;;
15913;SDS011;8055;51.930;8.840;2022-12-11T05:38:58;104.18;;;33.90;;
15913;SDS011;8055;51.930;8.840;2022-12-11T05:41:25;112.90;;;36.08;;
15913;SDS011;8055;51.930;8.840;2022-12-11T05:43:52;108.90;;;35.17;;
15913;SDS011;8055;51.930;8.840;2022-12-11T05:46:22;122.20;;;40.25;;
15913;SDS011;8055;51.930;8.840;2022-12-11T05:48:53;108.72;;;36.95;;
15913;SDS011;8055;51.930;8.840;2022-12-11T05:51:20;115.03;;;38.47;;
15913;SDS011;8055;51.930;8.840;2022-12-11T05:53:46;106.57;;;36.28;;
15913;SDS011;8055;51.930;8.840;2022-12-11T05:56:14;106.47;;;37.05;;
15913;SDS011;8055;51.930;8.840;2022-12-11T05:58:42;128.15;;;39.35;;
15913;SDS011;8055;51.930;8.840;2022-12-11T06:01:09;116.38;;;38.08;;
15913;SDS011;8055;51.930;8.840;2022-12-11T06:03:37;111.82;;;37.67;;
15913;SDS011;8055;51.930;8.840;2022-12-11T06:06:03;122.88;;;38.63;;
15913;SDS011;8055;51.930;8.840;2022-12-11T06:08:30;130.20;;;39.13;;
15913;SDS011;8055;51.930;8.840;2022-12-11T06:10:56;115.78;;;36.85;;
15913;SDS011;8055;51.930;8.840;2022-12-11T06:13:21;120.50;;;38.28;;
15913;SDS011;8055;51.930;8.840;2022-12-11T06:15:47;124.68;;;39.95;;
15913;SDS011;8055;51.930;8.840;2022-12-11T06:18:12;113.47;;;38.13;;
15913;SDS011;8055;51.930;8.840;2022-12-11T06:20:37;117.95;;;38.83;;
15913;SDS011;8055;51.930;8.840;2022-12-11T06:23:03;113.13;;;40.80;;
15913;SDS011;8055;51.930;8.840;2022-12-11T06:25:29;112.68;;;38.25;;
15913;SDS011;8055;51.930;8.840;2022-12-11T06:27:54;115.60;;;37.75;;
15913;SDS011;8055;51.930;8.840;2022-12-11T06:30:20;111.03;;;37.33;;
15913;SDS011;8055;51.930;8.840;2022-12-11T06:32:45;120.47;;;38.08;;
15913;SDS011;8055;51.930;8.840;2022-12-11T06:35:11;124.72;;;38.58;;
15913;SDS011;8055;51.930;8.840;2022-12-11T06:37:37;123.63;;;40.15;;
15913;SDS011;8055;51.930;8.840;2022-12-11T06:40:03;117.68;;;38.70;;
15913;SDS011;8055;51.930;8.840;2022-12-11T06:42:29;115.53;;;38.40;;
15913;SDS011;8055;51.930;8.840;2022-12-11T06:44:55;108.70;;;37.92;;
15913;SDS011;8055;51.930;8.840;2022-12-11T06:47:21;109.78;;;36.80;;
15913;SDS011;8055;51.930;8.840;2022-12-11T06:49:47;111.97;;;37.45;;
15913;SDS011;8055;51.930;8.840;2022-12-11T06:52:12;114.10;;;36.63;;
15913;SDS011;8055;51.930;8.840;2022-12-11T06:54:38;116.65;;;38.50;;
15913;SDS011;8055;51.930;8.840;2022-12-11T06:57:03;104.90;;;38.10;;
15913;SDS011;8055;51.930;8.840;2022-12-11T06:59:29;119.00;;;40.55;;
15913;SDS011;8055;51.930;8.840;2022-12-11T07:01:54;114.50;;;37.95;;
15913;SDS011;8055;51.930;8.840;2022-12-11T07:04:20;94.40;;;36.28;;
15913;SDS011;8055;51.930;8.840;2022-12-11T07:06:48;109.28;;;35.88;;
15913;SDS011;8055;51.930;8.840;2022-12-11T07:09:14;108.32;;;36.63;;
15913;SDS011;8055;51.930;8.840;2022-12-11T07:11:39;104.35;;;36.25;;
15913;SDS011;8055;51.930;8.840;2022-12-11T07:14:05;105.97;;;37.25;;
15913;SDS011;8055;51.930;8.840;2022-12-11T07:16:30;101.22;;;35.50;;
15913;SDS011;8055;51.930;8.840;2022-12-11T07:18:56;97.25;;;33.72;;
15913;SDS011;8055;51.930;8.840;2022-12-11T07:21:21;103.78;;;36.35;;
15913;SDS011;8055;51.930;8.840;2022-12-11T07:23:47;93.40;;;34.90;;
15913;SDS011;8055;51.930;8.840;2022-12-11T07:26:14;88.82;;;32.42;;
15913;SDS011;8055;51.930;8.840;2022-12-11T07:28:41;100.45;;;35.72;;
15913;SDS011;8055;51.930;8.840;2022-12-11T07:31:08;94.28;;;34.42;;
15913;SDS011;8055;51.930;8.840;2022-12-11T07:33:36;95.93;;;35.78;;
15913;SDS011;8055;51.930;8.840;2022-12-11T07:36:03;105.55;;;38.25;;
15913;SDS011;8055;51.930;8.840;2022-12-11T07:38:29;103.00;;;36.53;;
15913;SDS011;8055;51.930;8.840;2022-12-11T07:40:55;115.88;;;37.88;;
15913;SDS011;8055;51.930;8.840;2022-12-11T07:43:20;98.65;;;36.00;;
15913;SDS011;8055;51.930;8.840;2022-12-11T07:45:46;98.13;;;35.33;;
15913;SDS011;8055;51.930;8.840;2022-12-11T07:48:11;85.65;;;32.83;;
15913;SDS011;8055;51.930;8.840;2022-12-11T07:50:37;101.55;;;34.33;;
15913;SDS011;8055;51.930;8.840;2022-12-11T07:53:02;98.18;;;35.80;;
15913;SDS011;8055;51.930;8.840;2022-12-11T07:55:28;99.05;;;32.83;;
15913;SDS011;8055;51.930;8.840;2022-12-11T07:57:53;87.65;;;33.25;;
15913;SDS011;8055;51.930;8.840;2022-12-11T08:00:18;96.90;;;35.53;;
15913;SDS011;8055;51.930;8.840;2022-12-11T08:02:44;93.53;;;35.42;;
15913;SDS011;8055;51.930;8.840;2022-12-11T08:05:09;100.55;;;34.90;;
15913;SDS011;8055;51.930;8.840;2022-12-11T08:07:36;84.18;;;31.55;;
15913;SDS011;8055;51.930;8.840;2022-12-11T08:10:02;85.57;;;31.02;;
15913;SDS011;8055;51.930;8.840;2022-12-11T08:12:28;93.20;;;33.50;;
15913;SDS011;8055;51.930;8.840;2022-12-11T08:14:53;75.93;;;30.88;;
15913;SDS011;8055;51.930;8.840;2022-12-11T08:17:19;89.53;;;32.45;;
15913;SDS011;8055;51.930;8.840;2022-12-11T08:19:44;78.47;;;30.08;;
15913;SDS011;8055;51.930;8.840;2022-12-11T08:22:10;81.45;;;31.63;;
15913;SDS011;8055;51.930;8.840;2022-12-11T08:24:35;91.95;;;36.30;;
15913;SDS011;8055;51.930;8.840;2022-12-11T08:27:00;83.53;;;31.80;;
15913;SDS011;8055;51.930;8.840;2022-12-11T08:29:26;80.55;;;32.70;;
15913;SDS011;8055;51.930;8.840;2022-12-11T08:31:51;82.38;;;36.00;;
15913;SDS011;8055;51.930;8.840;2022-12-11T08:34:16;79.30;;;32.05;;
15913;SDS011;8055;51.930;8.840;2022-12-11T08:36:42;77.07;;;32.28;;
15913;SDS011;8055;51.930;8.840;2022-12-11T08:39:08;76.70;;;30.38;;
15913;SDS011;8055;51.930;8.840;2022-12-11T08:41:34;77.95;;;28.15;;
15913;SDS011;8055;51.930;8.840;2022-12-11T08:43:59;73.40;;;26.63;;
15913;SDS011;8055;51.930;8.840;2022-12-11T08:46:26;68.75;;;26.70;;
15913;SDS011;8055;51.930;8.840;2022-12-11T08:48:54;84.07;;;33.28;;
15913;SDS011;8055;51.930;8.840;2022-12-11T08:51:20;70.85;;;28.92;;
15913;SDS011;8055;51.930;8.840;2022-12-11T08:53:48;83.10;;;31.67;;
15913;SDS011;8055;51.930;8.840;2022-12-11T08:56:16;77.28;;;30.80;;
15913;SDS011;8055;51.930;8.840;2022-12-11T08:58:44;73.57;;;32.50;;
15913;SDS011;8055;51.930;8.840;2022-12-11T09:01:11;75.45;;;30.55;;
15913;SDS011;8055;51.930;8.840;2022-12-11T09:03:39;83.72;;;30.98;;
15913;SDS011;8055;51.930;8.840;2022-12-11T09:06:05;68.32;;;28.17;;
15913;SDS011;8055;51.930;8.840;2022-12-11T09:08:33;73.07;;;27.63;;
15913;SDS011;8055;51.930;8.840;2022-12-11T09:11:09;69.07;;;27.40;;
15913;SDS011;8055;51.930;8.840;2022-12-11T09:13:36;70.38;;;26.83;;
15913;SDS011;8055;51.930;8.840;2022-12-11T09:16:03;70.30;;;26.48;;
15913;SDS011;8055;51.930;8.840;2022-12-11T09:18:34;72.10;;;25.92;;
15913;SDS011;8055;51.930;8.840;2022-12-11T09:21:04;71.18;;;26.65;;
15913;SDS011;8055;51.930;8.840;2022-12-11T09:23:30;72.45;;;27.15;;
15913;SDS011;8055;51.930;8.840;2022-12-11T09:25:56;65.68;;;27.10;;
15913;SDS011;8055;51.930;8.840;2022-12-11T09:28:22;67.72;;;27.00;;
15913;SDS011;8055;51.930;8.840;2022-12-11T09:30:48;59.17;;;24.20;;
15913;SDS011;8055;51.930;8.840;2022-12-11T09:33:13;70.00;;;27.55;;
15913;SDS011;8055;51.930;8.840;2022-12-11T09:35:38;63.65;;;25.10;;
15913;SDS011;8055;51.930;8.840;2022-12-11T09:38:04;57.72;;;24.00;;
15913;SDS011;8055;51.930;8.840;2022-12-11T09:40:30;64.53;;;25.55;;
15913;SDS011;8055;51.930;8.840;2022-12-11T09:43:02;62.35;;;24.83;;
15913;SDS011;8055;51.930;8.840;2022-12-11T09:45:35;70.28;;;26.65;;
15913;SDS011;8055;51.930;8.840;2022-12-11T09:48:00;75.25;;;28.17;;
15913;SDS011;8055;51.930;8.840;2022-12-11T09:50:30;74.30;;;28.55;;
15913;SDS011;8055;51.930;8.840;2022-12-11T09:53:03;63.03;;;25.25;;
15913;SDS011;8055;51.930;8.840;2022-12-11T09:55:35;58.15;;;25.75;;
15913;SDS011;8055;51.930;8.840;2022-12-11T09:58:22;64.40;;;26.63;;
15913;SDS011;8055;51.930;8.840;2022-12-11T10:01:04;61.38;;;25.98;;
15913;SDS011;8055;51.930;8.840;2022-12-11T10:12:00;64.32;;;30.08;;
15913;SDS011;8055;51.930;8.840;2022-12-11T10:17:22;59.72;;;25.60;;
15913;SDS011;8055;51.930;8.840;2022-12-11T10:19:52;59.55;;;24.95;;
15913;SDS011;8055;51.930;8.840;2022-12-11T10:22:21;63.55;;;27.10;;
15913;SDS011;8055;51.930;8.840;2022-12-11T10:24:54;60.75;;;28.00;;
15913;SDS011;8055;51.930;8.840;2022-12-11T10:29:56;65.82;;;25.95;;
15913;SDS011;8055;51.930;8.840;2022-12-11T10:32:48;65.53;;;26.75;;
15913;SDS011;8055;51.930;8.840;2022-12-11T10:40:49;52.35;;;21.17;;
15913;SDS011;8055;51.930;8.840;2022-12-11T10:43:36;52.17;;;22.05;;
15913;SDS011;8055;51.930;8.840;2022-12-11T10:46:04;56.47;;;24.58;;
15913;SDS011;8055;51.930;8.840;2022-12-11T10:48:43;51.75;;;22.83;;
15913;SDS011;8055;51.930;8.840;2022-12-11T10:51:37;58.17;;;22.88;;
15913;SDS011;8055;51.930;8.840;2022-12-11T10:57:05;57.97;;;23.00;;
15913;SDS011;8055;51.930;8.840;2022-12-11T10:59:37;60.45;;;23.08;;
15913;SDS011;8055;51.930;8.840;2022-12-11T11:02:21;55.17;;;24.17;;
15913;SDS011;8055;51.930;8.840;2022-12-11T11:04:49;55.30;;;23.75;;
15913;SDS011;8055;51.930;8.840;2022-12-11T11:07:20;62.53;;;25.80;;
15913;SDS011;8055;51.930;8.840;2022-12-11T11:09:48;63.58;;;26.17;;
15913;SDS011;8055;51.930;8.840;2022-12-11T11:12:25;63.90;;;24.58;;
15913;SDS011;8055;51.930;8.840;2022-12-11T11:15:00;60.35;;;23.92;;
15913;SDS011;8055;51.930;8.840;2022-12-11T11:17:30;66.85;;;23.58;;
15913;SDS011;8055;51.930;8.840;2022-12-11T11:19:58;57.60;;;24.15;;
15913;SDS011;8055;51.930;8.840;2022-12-11T11:22:29;60.08;;;23.73;;
15913;SDS011;8055;51.930;8.840;2022-12-11T11:24:57;66.65;;;26.48;;
15913;SDS011;8055;51.930;8.840;2022-12-11T11:29:51;72.18;;;26.50;;
15913;SDS011;8055;51.930;8.840;2022-12-11T11:32:21;68.05;;;26.60;;
15913;SDS011;8055;51.930;8.840;2022-12-11T11:34:50;69.43;;;26.10;;
15913;SDS011;8055;51.930;8.840;2022-12-11T11:37:32;66.28;;;26.33;;
15913;SDS011;8055;51.930;8.840;2022-12-11T11:40:02;61.15;;;25.17;;
15913;SDS011;8055;51.930;8.840;2022-12-11T11:45:16;67.75;;;26.60;;
15913;SDS011;8055;51.930;8.840;2022-12-11T11:48:03;71.97;;;26.48;;
15913;SDS011;8055;51.930;8.840;2022-12-11T11:50:37;65.65;;;26.60;;
15913;SDS011;8055;51.930;8.840;2022-12-11T11:53:20;61.35;;;23.95;;
15913;SDS011;8055;51.930;8.840;2022-12-11T11:56:02;60.92;;;26.42;;
15913;SDS011;8055;51.930;8.840;2022-12-11T11:58:40;60.30;;;25.23;;
15913;SDS011;8055;51.930;8.840;2022-12-11T12:01:13;61.47;;;24.47;;
15913;SDS011;8055;51.930;8.840;2022-12-11T12:03:40;61.92;;;25.35;;
15913;SDS011;8055;51.930;8.840;2022-12-11T12:06:18;71.28;;;28.63;;
15913;SDS011;8055;51.930;8.840;2022-12-11T12:09:00;65.50;;;25.65;;
15913;SDS011;8055;51.930;8.840;2022-12-11T12:11:39;59.00;;;25.02;;
15913;SDS011;8055;51.930;8.840;2022-12-11T12:14:19;56.30;;;24.33;;
15913;SDS011;8055;51.930;8.840;2022-12-11T12:19:37;63.05;;;25.27;;
15913;SDS011;8055;51.930;8.840;2022-12-11T12:22:18;56.65;;;24.65;;
15913;SDS011;8055;51.930;8.840;2022-12-11T12:25:02;66.10;;;24.85;;
15913;SDS011;8055;51.930;8.840;2022-12-11T12:27:53;63.15;;;24.13;;
15913;SDS011;8055;51.930;8.840;2022-12-11T12:30:24;63.13;;;25.38;;
15913;SDS011;8055;51.930;8.840;2022-12-11T12:35:35;53.25;;;22.98;;
15913;SDS011;8055;51.930;8.840;2022-12-11T12:38:25;51.00;;;21.98;;
15913;SDS011;8055;51.930;8.840;2022-12-11T12:41:16;53.35;;;21.90;;
15913;SDS011;8055;51.930;8.840;2022-12-11T12:46:25;57.40;;;24.30;;
15913;SDS011;8055;51.930;8.840;2022-12-11T12:49:01;50.20;;;21.58;;
15913;SDS011;8055;51.930;8.840;2022-12-11T12:51:28;50.45;;;21.98;;
15913;SDS011;8055;51.930;8.840;2022-12-11T12:53:55;51.78;;;22.67;;
15913;SDS011;8055;51.930;8.840;2022-12-11T12:56:26;60.17;;;26.93;;
15913;SDS011;8055;51.930;8.840;2022-12-11T12:58:54;58.33;;;23.23;;
15913;SDS011;8055;51.930;8.840;2022-12-11T13:01:23;52.13;;;22.67;;
15913;SDS011;8055;51.930;8.840;2022-12-11T13:04:04;46.70;;;20.88;;
15913;SDS011;8055;51.930;8.840;2022-12-11T13:06:38;48.25;;;22.67;;
15913;SDS011;8055;51.930;8.840;2022-12-11T13:09:09;52.13;;;23.98;;
15913;SDS011;8055;51.930;8.840;2022-12-11T13:11:36;51.20;;;22.05;;
15913;SDS011;8055;51.930;8.840;2022-12-11T13:14:06;52.65;;;23.95;;
15913;SDS011;8055;51.930;8.840;2022-12-11T13:17:04;52.25;;;23.50;;
15913;SDS011;8055;51.930;8.840;2022-12-11T13:20:13;53.88;;;23.13;;
15913;SDS011;8055;51.930;8.840;2022-12-11T13:22:48;53.05;;;23.92;;
15913;SDS011;8055;51.930;8.840;2022-12-11T13:25:27;66.95;;;26.50;;
15913;SDS011;8055;51.930;8.840;2022-12-11T13:28:45;59.67;;;26.00;;
15913;SDS011;8055;51.930;8.840;2022-12-11T13:33:38;49.97;;;23.05;;
15913;SDS011;8055;51.930;8.840;2022-12-11T13:38:32;53.22;;;23.65;;
15913;SDS011;8055;51.930;8.840;2022-12-11T13:40:59;51.95;;;22.70;;
15913;SDS011;8055;51.930;8.840;2022-12-11T13:43:25;47.65;;;21.58;;
15913;SDS011;8055;51.930;8.840;2022-12-11T13:45:53;47.05;;;23.88;;
15913;SDS011;8055;51.930;8.840;2022-12-11T13:48:22;69.10;;;29.15;;
15913;SDS011;8055;51.930;8.840;2022-12-11T13:50:52;56.00;;;22.08;;
15913;SDS011;8055;51.930;8.840;2022-12-11T13:53:19;60.30;;;25.02;;
15913;SDS011;8055;51.930;8.840;2022-12-11T13:55:45;53.17;;;21.02;;
15913;SDS011;8055;51.930;8.840;2022-12-11T13:58:20;41.42;;;18.73;;
15913;SDS011;8055;51.930;8.840;2022-12-11T14:03:37;49.47;;;22.67;;
15913;SDS011;8055;51.930;8.840;2022-12-11T14:06:04;54.63;;;25.30;;
15913;SDS011;8055;51.930;8.840;2022-12-11T14:08:35;46.85;;;21.70;;
15913;SDS011;8055;51.930;8.840;2022-12-11T14:11:02;46.90;;;21.05;;
15913;SDS011;8055;51.930;8.840;2022-12-11T14:13:33;40.55;;;18.77;;
15913;SDS011;8055;51.930;8.840;2022-12-11T14:16:00;45.63;;;19.53;;
15913;SDS011;8055;51.930;8.840;2022-12-11T14:18:29;39.58;;;18.30;;
15913;SDS011;8055;51.930;8.840;2022-12-11T14:20:57;31.17;;;16.45;;
15913;SDS011;8055;51.930;8.840;2022-12-11T14:23:26;36.78;;;17.02;;
15913;SDS011;8055;51.930;8.840;2022-12-11T14:25:55;32.50;;;15.45;;
15913;SDS011;8055;51.930;8.840;2022-12-11T14:28:25;33.80;;;15.27;;
15913;SDS011;8055;51.930;8.840;2022-12-11T14:30:56;28.20;;;14.15;;
15913;SDS011;8055;51.930;8.840;2022-12-11T14:33:26;29.60;;;14.00;;
15913;SDS011;8055;51.930;8.840;2022-12-11T14:35:56;32.22;;;15.43;;
15913;SDS011;8055;51.930;8.840;2022-12-11T14:38:23;28.83;;;15.52;;
15913;SDS011;8055;51.930;8.840;2022-12-11T14:40:54;24.83;;;12.65;;
15913;SDS011;8055;51.930;8.840;2022-12-11T14:43:29;25.38;;;12.30;;
15913;SDS011;8055;51.930;8.840;2022-12-11T14:46:01;25.25;;;12.32;;
15913;SDS011;8055;51.930;8.840;2022-12-11T14:48:35;25.70;;;12.48;;
15913;SDS011;8055;51.930;8.840;2022-12-11T14:51:13;24.98;;;12.20;;
15913;SDS011;8055;51.930;8.840;2022-12-11T14:53:45;26.27;;;13.07;;
15913;SDS011;8055;51.930;8.840;2022-12-11T14:56:20;33.22;;;17.23;;
15913;SDS011;8055;51.930;8.840;2022-12-11T14:58:56;37.85;;;17.45;;
15913;SDS011;8055;51.930;8.840;2022-12-11T15:01:29;32.72;;;14.50;;
15913;SDS011;8055;51.930;8.840;2022-12-11T15:04:14;33.38;;;15.55;;
15913;SDS011;8055;51.930;8.840;2022-12-11T15:06:47;35.58;;;16.25;;
15913;SDS011;8055;51.930;8.840;2022-12-11T15:09:35;27.10;;;14.52;;
15913;SDS011;8055;51.930;8.840;2022-12-11T15:12:09;29.83;;;14.55;;
15913;SDS011;8055;51.930;8.840;2022-12-11T15:14:48;29.83;;;15.50;;
15913;SDS011;8055;51.930;8.840;2022-12-11T15:17:17;33.40;;;15.73;;
15913;SDS011;8055;51.930;8.840;2022-12-11T15:19:47;29.63;;;15.05;;
15913;SDS011;8055;51.930;8.840;2022-12-11T15:22:16;34.17;;;16.27;;
15913;SDS011;8055;51.930;8.840;2022-12-11T15:24:43;36.17;;;17.40;;
15913;SDS011;8055;51.930;8.840;2022-12-11T15:27:22;35.13;;;15.98;;
15913;SDS011;8055;51.930;8.840;2022-12-11T15:29:50;38.70;;;16.98;;
15913;SDS011;8055;51.930;8.840;2022-12-11T15:32:17;38.70;;;17.90;;
15913;SDS011;8055;51.930;8.840;2022-12-11T15:35:30;33.28;;;16.80;;
15913;SDS011;8055;51.930;8.840;2022-12-11T15:38:23;34.20;;;16.73;;
15913;SDS011;8055;51.930;8.840;2022-12-11T15:40:51;44.20;;;20.10;;
15913;SDS011;8055;51.930;8.840;2022-12-11T15:43:17;43.17;;;22.20;;
15913;SDS011;8055;51.930;8.840;2022-12-11T15:45:42;49.58;;;23.65;;
15913;SDS011;8055;51.930;8.840;2022-12-11T15:48:07;44.95;;;22.10;;